Time,TemperatureF,DewpointF,PressureIn,WindDirection,WindDirectionDegrees,WindSpeedMPH,WindSpeedGustMPH,Humidity,HourlyPrecipIn,Conditions,Clouds,dailyrainin,SoftwareType,DateUTC
2013-11-09 00:01:00,34.1,21.7,30.02,WSW,247,0.0,3.0,60,0.00,,,-99.99,WeatherLink 5.7,2013-11-09 05:01:00,
2013-11-09 00:06:00,34.3,22.6,30.02,SW,225,0.0,2.0,62,0.00,,,-99.99,WeatherLink 5.7,2013-11-09 05:06:00,
2013-11-09 00:11:00,34.1,22.0,30.02,North,-999,0.0,0.0,61,0.00,,,-99.99,WeatherLink 5.7,2013-11-09 05:11:00,
2013-11-09 00:16:00,34.1,22.0,30.02,North,-999,0.0,0.0,61,0.00,,,-99.99,WeatherLink 5.7,2013-11-09 05:16:00,
2013-11-09 00:26:00,33.7,22.8,30.02,North,-999,0.0,0.0,64,0.00,,,-99.99,WeatherLink 5.7,2013-11-09 05:26:00,
2013-11-09 00:31:00,33.5,23.7,30.02,North,-999,0.0,0.0,67,0.00,,,-99.99,WeatherLink 5.7,2013-11-09 05:31:00,
2013-11-09 00:41:00,32.9,23.5,30.02,SW,225,0.0,1.0,68,0.00,,,-99.99,WeatherLink 5.7,2013-11-09 05:41:00,
2013-11-09 00:51:00,32.5,22.8,30.02,North,-999,0.0,0.0,67,0.00,,,-99.99,WeatherLink 5.7,2013-11-09 05:51:00,
2013-11-09 01:01:00,32.2,22.1,30.03,North,-999,0.0,0.0,66,0.00,,,-99.99,WeatherLink 5.7,2013-11-09 06:01:00,
2013-11-09 01:06:00,32.2,21.7,30.03,North,-999,0.0,0.0,65,0.00,,,-99.99,WeatherLink 5.7,2013-11-09 06:06:00,
2013-11-09 01:11:00,32.2,21.7,30.03,North,-999,0.0,0.0,65,0.00,,,-99.99,WeatherLink 5.7,2013-11-09 06:11:00,
2013-11-09 01:16:00,32.2,22.5,30.03,North,-999,0.0,0.0,67,0.00,,,-99.99,WeatherLink 5.7,2013-11-09 06:16:00,
2013-11-09 01:26:00,32.2,23.2,30.03,SW,225,0.0,1.0,69,0.00,,,-99.99,WeatherLink 5.7,2013-11-09 06:26:00,
2013-11-09 01:36:00,32.1,23.1,30.04,SW,225,0.0,1.0,69,0.00,,,-99.99,WeatherLink 5.7,2013-11-09 06:36:00,
2013-11-09 01:46:00,32.2,23.5,30.05,WSW,247,0.0,2.0,70,0.00,,,-99.99,WeatherLink 5.7,2013-11-09 06:46:00,
2013-11-09 01:56:00,32.2,23.2,30.05,North,-999,0.0,0.0,69,0.00,,,-99.99,WeatherLink 5.7,2013-11-09 06:56:00,
2013-11-09 02:01:00,32.2,23.2,30.06,North,-999,0.0,0.0,69,0.00,,,-99.99,WeatherLink 5.7,2013-11-09 07:01:00,
2013-11-09 02:11:00,32.5,22.0,30.06,WSW,247,0.0,2.0,65,0.00,,,-99.99,WeatherLink 5.7,2013-11-09 07:11:00,
2013-11-09 02:21:00,32.7,22.6,30.06,WSW,247,0.0,1.0,66,0.00,,,-99.99,WeatherLink 5.7,2013-11-09 07:21:00,
2013-11-09 02:31:00,32.8,23.4,30.06,North,-999,0.0,0.0,68,0.00,,,-99.99,WeatherLink 5.7,2013-11-09 07:31:00,
2013-11-09 02:36:00,32.9,23.5,30.06,North,-999,0.0,0.0,68,0.00,,,-99.99,WeatherLink 5.7,2013-11-09 07:36:00,
2013-11-09 02:46:00,32.8,23.7,30.06,North,-999,0.0,0.0,69,0.00,,,-99.99,WeatherLink 5.7,2013-11-09 07:46:00,
2013-11-09 02:56:00,32.5,22.8,30.06,North,-999,0.0,0.0,67,0.00,,,-99.99,WeatherLink 5.7,2013-11-09 07:56:00,
2013-11-09 03:06:00,32.2,22.1,30.06,North,-999,0.0,0.0,66,0.00,,,-99.99,WeatherLink 5.7,2013-11-09 08:06:00,
2013-11-09 03:16:00,31.9,22.5,30.06,North,-999,0.0,0.0,68,0.00,,,-99.99,WeatherLink 5.7,2013-11-09 08:16:00,
2013-11-09 03:21:00,31.8,22.4,30.06,WSW,247,0.0,1.0,68,0.00,,,-99.99,WeatherLink 5.7,2013-11-09 08:21:00,
2013-11-09 03:31:00,31.3,22.3,30.07,North,-999,0.0,0.0,69,0.00,,,-99.99,WeatherLink 5.7,2013-11-09 08:31:00,
2013-11-09 03:41:00,31.0,22.4,30.07,North,-999,0.0,0.0,70,0.00,,,-99.99,WeatherLink 5.7,2013-11-09 08:41:00,
2013-11-09 03:51:00,30.6,22.6,30.07,North,-999,0.0,0.0,72,0.00,,,-99.99,WeatherLink 5.7,2013-11-09 08:51:00,
2013-11-09 04:01:00,30.0,22.7,30.08,North,-999,0.0,0.0,74,0.00,,,-99.99,WeatherLink 5.7,2013-11-09 09:01:00,
2013-11-09 04:11:00,29.7,22.4,30.08,North,-999,0.0,0.0,74,0.00,,,-99.99,WeatherLink 5.7,2013-11-09 09:11:00,
2013-11-09 04:16:00,29.5,22.6,30.09,WSW,247,0.0,2.0,75,0.00,,,-99.99,WeatherLink 5.7,2013-11-09 09:16:00,
2013-11-09 04:26:00,29.3,22.4,30.09,WSW,247,1.0,2.0,75,0.00,,,-99.99,WeatherLink 5.7,2013-11-09 09:26:00,
2013-11-09 04:36:00,29.5,22.2,30.09,WSW,247,0.0,2.0,74,0.00,,,-99.99,WeatherLink 5.7,2013-11-09 09:36:00,
2013-11-09 04:46:00,30.0,22.1,30.09,WSW,247,0.0,5.0,72,0.00,,,-99.99,WeatherLink 5.7,2013-11-09 09:46:00,
2013-11-09 04:56:00,30.3,21.7,30.09,WSW,247,0.0,2.0,70,0.00,,,-99.99,WeatherLink 5.7,2013-11-09 09:56:00,
2013-11-09 05:06:00,30.3,21.3,30.09,WSW,247,0.0,2.0,69,0.00,,,-99.99,WeatherLink 5.7,2013-11-09 10:06:00,
2013-11-09 05:16:00,30.3,21.7,30.10,North,-999,0.0,0.0,70,0.00,,,-99.99,WeatherLink 5.7,2013-11-09 10:16:00,
2013-11-09 05:26:00,30.1,21.5,30.10,WSW,247,0.0,1.0,70,0.00,,,-99.99,WeatherLink 5.7,2013-11-09 10:26:00,
2013-11-09 05:31:00,30.0,21.4,30.11,North,-999,0.0,0.0,70,0.00,,,-99.99,WeatherLink 5.7,2013-11-09 10:31:00,
2013-11-09 05:41:00,29.7,21.8,30.11,North,-999,0.0,0.0,72,0.00,,,-99.99,WeatherLink 5.7,2013-11-09 10:41:00,
2013-11-09 05:46:00,29.7,21.8,30.11,WSW,247,0.0,3.0,72,0.00,,,-99.99,WeatherLink 5.7,2013-11-09 10:46:00,
2013-11-09 05:51:00,29.7,21.8,30.11,WSW,247,1.0,3.0,72,0.00,,,-99.99,WeatherLink 5.7,2013-11-09 10:51:00,
2013-11-09 06:01:00,29.7,21.4,30.11,North,-999,0.0,0.0,71,0.00,,,-99.99,WeatherLink 5.7,2013-11-09 11:01:00,
2013-11-09 06:11:00,29.5,20.9,30.11,North,-999,0.0,0.0,70,0.00,,,-99.99,WeatherLink 5.7,2013-11-09 11:11:00,
2013-11-09 06:21:00,29.4,21.2,30.11,North,-999,0.0,0.0,71,0.00,,,-99.99,WeatherLink 5.7,2013-11-09 11:21:00,
2013-11-09 06:31:00,29.1,21.8,30.12,North,-999,0.0,0.0,74,0.00,,,-99.99,WeatherLink 5.7,2013-11-09 11:31:00,
2013-11-09 06:41:00,28.8,21.2,30.12,North,-999,0.0,0.0,73,0.00,,,-99.99,WeatherLink 5.7,2013-11-09 11:41:00,
2013-11-09 06:46:00,28.8,21.9,30.13,WSW,247,0.0,2.0,75,0.00,,,-99.99,WeatherLink 5.7,2013-11-09 11:46:00,
2013-11-09 06:56:00,28.8,22.2,30.13,WSW,247,1.0,3.0,76,0.00,,,-99.99,WeatherLink 5.7,2013-11-09 11:56:00,
2013-11-09 07:06:00,29.4,21.8,30.14,West,270,1.0,3.0,73,0.00,,,-99.99,WeatherLink 5.7,2013-11-09 12:06:00,
2013-11-09 07:16:00,30.1,22.2,30.14,West,270,0.0,1.0,72,0.00,,,-99.99,WeatherLink 5.7,2013-11-09 12:16:00,
2013-11-09 07:26:00,30.7,22.1,30.14,West,270,1.0,2.0,70,0.00,,,-99.99,WeatherLink 5.7,2013-11-09 12:26:00,
2013-11-09 07:36:00,31.3,22.0,30.14,West,270,0.0,2.0,68,0.00,,,-99.99,WeatherLink 5.7,2013-11-09 12:36:00,
2013-11-09 07:46:00,32.1,22.4,30.15,West,270,2.0,5.0,67,0.00,,,-99.99,WeatherLink 5.7,2013-11-09 12:46:00,
2013-11-09 07:56:00,33.2,22.0,30.15,West,270,1.0,6.0,63,0.00,,,-99.99,WeatherLink 5.7,2013-11-09 12:56:00,
2013-11-09 08:06:00,35.2,22.7,30.15,SW,225,0.0,3.0,60,0.00,,,-99.99,WeatherLink 5.7,2013-11-09 13:06:00,
2013-11-09 08:16:00,38.0,23.3,30.15,WSW,247,2.0,3.0,55,0.00,,,-99.99,WeatherLink 5.7,2013-11-09 13:16:00,
2013-11-09 08:21:00,39.5,22.8,30.15,WSW,247,3.0,6.0,51,0.00,,,-99.99,WeatherLink 5.7,2013-11-09 13:21:00,
2013-11-09 08:30:00,41.6,22.8,30.14,WSW,247,2.0,9.0,47,0.00,,,-99.99,WeatherLink 5.7,2013-11-09 13:30:00,
2013-11-09 08:40:00,42.6,22.2,30.14,West,270,1.0,10.0,44,0.00,,,-99.99,WeatherLink 5.7,2013-11-09 13:40:00,
2013-11-09 08:46:00,43.8,22.7,30.14,WSW,247,2.0,5.0,43,0.00,,,-99.99,WeatherLink 5.7,2013-11-09 13:46:00,
2013-11-09 08:56:00,45.4,23.0,30.14,West,270,2.0,6.0,41,0.00,,,-99.99,WeatherLink 5.7,2013-11-09 13:56:00,
2013-11-09 09:05:00,46.4,22.1,30.14,WSW,247,3.0,7.0,38,0.00,,,-99.99,WeatherLink 5.7,2013-11-09 14:05:00,
2013-11-09 09:15:00,46.5,22.2,30.14,WSW,247,4.0,9.0,38,0.00,,,-99.99,WeatherLink 5.7,2013-11-09 14:15:00,
2013-11-09 09:26:00,46.5,22.2,30.13,West,270,4.0,8.0,38,0.00,,,-99.99,WeatherLink 5.7,2013-11-09 14:26:00,
2013-11-09 09:35:00,46.7,22.4,30.13,NNW,337,1.0,7.0,38,0.00,,,-99.99,WeatherLink 5.7,2013-11-09 14:35:00,
2013-11-09 09:41:00,47.0,22.0,30.13,WNW,292,1.0,5.0,37,0.00,,,-99.99,WeatherLink 5.7,2013-11-09 14:41:00,
2013-11-09 09:51:00,48.3,21.9,30.12,WSW,247,3.0,8.0,35,0.00,,,-99.99,WeatherLink 5.7,2013-11-09 14:51:00,
2013-11-09 10:00:00,46.8,22.5,30.12,West,270,2.0,6.0,38,0.00,,,-99.99,WeatherLink 5.7,2013-11-09 15:00:00,
2013-11-09 10:05:00,46.1,21.2,30.12,North,0,2.0,6.0,37,0.00,,,-99.99,WeatherLink 5.7,2013-11-09 15:05:00,
2013-11-09 10:11:00,45.7,21.5,30.12,West,270,2.0,6.0,38,0.00,,,-99.99,WeatherLink 5.7,2013-11-09 15:11:00,
2013-11-09 10:20:00,45.5,21.9,30.11,West,270,3.0,7.0,39,0.00,,,-99.99,WeatherLink 5.7,2013-11-09 15:20:00,
2013-11-09 10:26:00,45.4,23.0,30.11,WSW,247,2.0,7.0,41,0.00,,,-99.99,WeatherLink 5.7,2013-11-09 15:26:00,
2013-11-09 10:36:00,44.1,22.4,30.11,West,270,3.0,7.0,42,0.00,,,-99.99,WeatherLink 5.7,2013-11-09 15:36:00,
2013-11-09 10:45:00,43.9,21.7,30.11,West,270,1.0,3.0,41,0.00,,,-99.99,WeatherLink 5.7,2013-11-09 15:45:00,
2013-11-09 10:51:00,43.8,21.6,30.10,West,270,2.0,6.0,41,0.00,,,-99.99,WeatherLink 5.7,2013-11-09 15:51:00,
2013-11-09 11:01:00,43.9,21.1,30.10,WSW,247,3.0,10.0,40,0.00,,,-99.99,WeatherLink 5.7,2013-11-09 16:01:00,
2013-11-09 11:11:00,46.0,22.4,30.10,WSW,247,3.0,8.0,39,0.00,,,-99.99,WeatherLink 5.7,2013-11-09 16:11:00,
2013-11-09 11:20:00,47.6,20.6,30.09,WSW,247,3.0,6.0,34,0.00,,,-99.99,WeatherLink 5.7,2013-11-09 16:20:00,
2013-11-09 11:30:00,47.6,20.6,30.09,WSW,247,2.0,6.0,34,0.00,,,-99.99,WeatherLink 5.7,2013-11-09 16:30:00,
2013-11-09 11:36:00,47.7,19.2,30.08,West,270,4.0,8.0,32,0.00,,,-99.99,WeatherLink 5.7,2013-11-09 16:36:00,
2013-11-09 11:46:00,48.5,20.7,30.08,WSW,247,2.0,6.0,33,0.00,,,-99.99,WeatherLink 5.7,2013-11-09 16:46:00,
2013-11-09 11:55:00,48.8,20.2,30.07,WSW,247,4.0,8.0,32,0.00,,,-99.99,WeatherLink 5.7,2013-11-09 16:55:00,
2013-11-09 12:05:00,48.3,18.3,30.07,WSW,247,2.0,7.0,30,0.00,,,-99.99,WeatherLink 5.7,2013-11-09 17:05:00,
2013-11-09 12:11:00,48.0,19.5,30.07,West,270,3.0,10.0,32,0.00,,,-99.99,WeatherLink 5.7,2013-11-09 17:11:00,
2013-11-09 12:20:00,47.7,19.2,30.07,NW,315,3.0,7.0,32,0.00,,,-99.99,WeatherLink 5.7,2013-11-09 17:20:00,
2013-11-09 12:26:00,47.6,19.2,30.07,North,0,3.0,10.0,32,0.00,,,-99.99,WeatherLink 5.7,2013-11-09 17:26:00,
2013-11-09 12:36:00,47.0,20.0,30.07,West,270,2.0,8.0,34,0.00,,,-99.99,WeatherLink 5.7,2013-11-09 17:36:00,
2013-11-09 12:45:00,47.0,20.0,30.07,WNW,292,2.0,10.0,34,0.00,,,-99.99,WeatherLink 5.7,2013-11-09 17:45:00,
2013-11-09 12:55:00,46.1,19.2,30.07,NNW,337,1.0,7.0,34,0.00,,,-99.99,WeatherLink 5.7,2013-11-09 17:55:00,
2013-11-09 13:01:00,45.7,20.9,30.07,NNW,337,1.0,6.0,37,0.00,,,-99.99,WeatherLink 5.7,2013-11-09 18:01:00,
2013-11-09 13:11:00,45.1,19.7,30.06,WSW,247,2.0,6.0,36,0.00,,,-99.99,WeatherLink 5.7,2013-11-09 18:11:00,
2013-11-09 13:20:00,44.8,20.7,30.06,West,270,2.0,8.0,38,0.00,,,-99.99,WeatherLink 5.7,2013-11-09 18:20:00,
2013-11-09 13:30:00,45.1,21.0,30.06,NW,315,1.0,3.0,38,0.00,,,-99.99,WeatherLink 5.7,2013-11-09 18:30:00,
2013-11-09 13:35:00,44.9,21.4,30.06,WSW,247,1.0,5.0,39,0.00,,,-99.99,WeatherLink 5.7,2013-11-09 18:35:00,
2013-11-09 13:40:00,44.9,20.8,30.06,WSW,247,2.0,7.0,38,0.00,,,-99.99,WeatherLink 5.7,2013-11-09 18:40:00,
2013-11-09 13:50:00,44.5,21.6,30.06,West,270,1.0,3.0,40,0.00,,,-99.99,WeatherLink 5.7,2013-11-09 18:50:00,
2013-11-09 13:56:00,44.3,22.1,30.06,West,270,2.0,6.0,41,0.00,,,-99.99,WeatherLink 5.7,2013-11-09 18:56:00,
2013-11-09 14:05:00,44.3,21.5,30.04,WSW,247,1.0,5.0,40,0.00,,,-99.99,WeatherLink 5.7,2013-11-09 19:05:00,
2013-11-09 14:11:00,44.2,21.4,30.04,WSW,247,1.0,3.0,40,0.00,,,-99.99,WeatherLink 5.7,2013-11-09 19:11:00,
2013-11-09 14:20:00,44.2,23.1,30.04,WSW,247,1.0,7.0,43,0.00,,,-99.99,WeatherLink 5.7,2013-11-09 19:20:00,
2013-11-09 14:25:00,44.1,22.4,30.04,WSW,247,1.0,5.0,42,0.00,,,-99.99,WeatherLink 5.7,2013-11-09 19:25:00,
2013-11-09 14:36:00,44.1,23.0,30.04,WSW,247,1.0,3.0,43,0.00,,,-99.99,WeatherLink 5.7,2013-11-09 19:36:00,
2013-11-09 14:46:00,43.8,22.2,30.04,SW,225,2.0,6.0,42,0.00,,,-99.99,WeatherLink 5.7,2013-11-09 19:46:00,
2013-11-09 14:55:00,43.2,22.2,30.04,WSW,247,1.0,6.0,43,0.00,,,-99.99,WeatherLink 5.7,2013-11-09 19:55:00,
2013-11-09 15:00:00,43.2,22.7,30.04,WSW,247,2.0,5.0,44,0.00,,,-99.99,WeatherLink 5.7,2013-11-09 20:00:00,
2013-11-09 15:05:00,43.3,22.3,30.05,West,270,1.0,3.0,43,0.00,,,-99.99,WeatherLink 5.7,2013-11-09 20:05:00,
2013-11-09 15:16:00,43.5,23.5,30.05,West,270,1.0,5.0,45,0.00,,,-99.99,WeatherLink 5.7,2013-11-09 20:16:00,
2013-11-09 15:25:00,43.3,22.8,30.04,WSW,247,1.0,3.0,44,0.00,,,-99.99,WeatherLink 5.7,2013-11-09 20:25:00,
2013-11-09 15:31:00,43.3,22.8,30.04,WSW,247,2.0,6.0,44,0.00,,,-99.99,WeatherLink 5.7,2013-11-09 20:31:00,
2013-11-09 15:40:00,43.3,22.8,30.04,West,270,2.0,5.0,44,0.00,,,-99.99,WeatherLink 5.7,2013-11-09 20:40:00,
2013-11-09 15:46:00,43.3,22.3,30.04,SW,225,2.0,7.0,43,0.00,,,-99.99,WeatherLink 5.7,2013-11-09 20:46:00,
2013-11-09 15:55:00,43.2,22.7,30.04,West,270,1.0,3.0,44,0.00,,,-99.99,WeatherLink 5.7,2013-11-09 20:55:00,
2013-11-09 16:01:00,43.1,23.7,30.04,West,270,1.0,3.0,46,0.00,,,-99.99,WeatherLink 5.7,2013-11-09 21:01:00,
2013-11-09 16:10:00,42.8,22.9,30.04,WSW,247,0.0,2.0,45,0.00,,,-99.99,WeatherLink 5.7,2013-11-09 21:10:00,
2013-11-09 16:16:00,42.6,22.7,30.04,WSW,247,0.0,3.0,45,0.00,,,-99.99,WeatherLink 5.7,2013-11-09 21:16:00,
2013-11-09 16:25:00,42.1,22.8,30.04,NNW,337,0.0,2.0,46,0.00,,,-99.99,WeatherLink 5.7,2013-11-09 21:25:00,
2013-11-09 16:31:00,41.9,23.1,30.04,North,-999,0.0,0.0,47,0.00,,,-99.99,WeatherLink 5.7,2013-11-09 21:31:00,
2013-11-09 16:41:00,41.3,23.1,30.04,North,-999,0.0,0.0,48,0.00,,,-99.99,WeatherLink 5.7,2013-11-09 21:41:00,
2013-11-09 16:51:00,40.8,24.1,30.04,North,-999,0.0,0.0,51,0.00,,,-99.99,WeatherLink 5.7,2013-11-09 21:51:00,
2013-11-09 17:01:00,40.2,24.4,30.04,North,-999,0.0,0.0,53,0.00,,,-99.99,WeatherLink 5.7,2013-11-09 22:01:00,
2013-11-09 17:11:00,39.8,25.4,30.04,North,-999,0.0,0.0,56,0.00,,,-99.99,WeatherLink 5.7,2013-11-09 22:11:00,
2013-11-09 17:20:00,39.5,23.8,30.04,North,-999,0.0,0.0,53,0.00,,,-99.99,WeatherLink 5.7,2013-11-09 22:20:00,
2013-11-09 17:21:00,39.5,24.2,30.04,North,-999,0.0,0.0,54,0.00,,,-99.99,WeatherLink 5.7,2013-11-09 22:21:00,
2013-11-09 17:30:00,39.5,23.3,30.05,North,-999,0.0,0.0,52,0.00,,,-99.99,WeatherLink 5.7,2013-11-09 22:30:00,
2013-11-09 17:31:00,39.5,24.2,30.04,North,-999,0.0,0.0,54,0.00,,,-99.99,WeatherLink 5.7,2013-11-09 22:31:00,
2013-11-09 17:41:00,39.6,23.9,30.05,North,-999,0.0,0.0,53,0.00,,,-99.99,WeatherLink 5.7,2013-11-09 22:41:00,
2013-11-09 17:51:00,39.8,25.4,30.05,North,-999,0.0,0.0,56,0.00,,,-99.99,WeatherLink 5.7,2013-11-09 22:51:00,
2013-11-09 18:00:00,39.8,26.2,30.05,North,-999,0.0,0.0,58,0.00,,,-99.99,WeatherLink 5.7,2013-11-09 23:00:00,
2013-11-09 18:06:00,39.8,26.2,30.05,North,-999,0.0,0.0,58,0.00,,,-99.99,WeatherLink 5.7,2013-11-09 23:06:00,
2013-11-09 18:16:00,39.6,25.6,30.05,North,-999,0.0,0.0,57,0.00,,,-99.99,WeatherLink 5.7,2013-11-09 23:16:00,
2013-11-09 18:26:00,39.5,24.2,30.05,North,-999,0.0,0.0,54,0.00,,,-99.99,WeatherLink 5.7,2013-11-09 23:26:00,
2013-11-09 18:35:00,39.6,26.0,30.04,North,-999,0.0,0.0,58,0.00,,,-99.99,WeatherLink 5.7,2013-11-09 23:35:00,
2013-11-09 18:41:00,39.6,26.0,30.04,North,-999,0.0,0.0,58,0.00,,,-99.99,WeatherLink 5.7,2013-11-09 23:41:00,
2013-11-09 18:51:00,39.5,26.3,30.03,North,-999,0.0,0.0,59,0.00,,,-99.99,WeatherLink 5.7,2013-11-09 23:51:00,
2013-11-09 19:01:00,39.5,25.1,30.03,North,-999,0.0,0.0,56,0.00,,,-99.99,WeatherLink 5.7,2013-11-10 00:01:00,
2013-11-09 19:10:00,39.3,24.9,30.03,North,-999,0.0,0.0,56,0.00,,,-99.99,WeatherLink 5.7,2013-11-10 00:10:00,
2013-11-09 19:16:00,39.3,24.9,30.03,North,-999,0.0,0.0,56,0.00,,,-99.99,WeatherLink 5.7,2013-11-10 00:16:00,
2013-11-09 19:26:00,39.3,25.7,30.04,North,-999,0.0,0.0,58,0.00,,,-99.99,WeatherLink 5.7,2013-11-10 00:26:00,
2013-11-09 19:36:00,39.3,25.7,30.04,North,-999,0.0,0.0,58,0.00,,,-99.99,WeatherLink 5.7,2013-11-10 00:36:00,
2013-11-09 19:46:00,39.3,26.2,30.04,North,-999,0.0,0.0,59,0.00,,,-99.99,WeatherLink 5.7,2013-11-10 00:46:00,
2013-11-09 19:56:00,39.3,26.2,30.04,North,-999,0.0,0.0,59,0.00,,,-99.99,WeatherLink 5.7,2013-11-10 00:56:00,
2013-11-09 20:06:00,39.2,26.5,30.04,South,180,0.0,2.0,60,0.00,,,-99.99,WeatherLink 5.7,2013-11-10 01:06:00,
2013-11-09 20:15:00,39.2,26.1,30.04,North,-999,0.0,0.0,59,0.00,,,-99.99,WeatherLink 5.7,2013-11-10 01:15:00,
2013-11-09 20:20:00,39.2,26.1,30.03,North,-999,0.0,0.0,59,0.00,,,-99.99,WeatherLink 5.7,2013-11-10 01:20:00,
2013-11-09 20:26:00,39.3,26.2,30.03,North,-999,0.0,0.0,59,0.00,,,-99.99,WeatherLink 5.7,2013-11-10 01:26:00,
2013-11-09 20:35:00,39.2,26.5,30.03,South,180,0.0,2.0,60,0.00,,,-99.99,WeatherLink 5.7,2013-11-10 01:35:00,
2013-11-09 20:41:00,39.2,26.1,30.03,North,-999,0.0,0.0,59,0.00,,,-99.99,WeatherLink 5.7,2013-11-10 01:41:00,
2013-11-09 20:50:00,39.2,26.5,30.03,North,-999,0.0,0.0,60,0.00,,,-99.99,WeatherLink 5.7,2013-11-10 01:50:00,
2013-11-09 20:56:00,39.2,27.3,30.03,North,-999,0.0,0.0,62,0.00,,,-99.99,WeatherLink 5.7,2013-11-10 01:56:00,
2013-11-09 21:05:00,39.2,27.3,30.04,North,-999,0.0,0.0,62,0.00,,,-99.99,WeatherLink 5.7,2013-11-10 02:05:00,
2013-11-09 21:16:00,39.1,26.8,30.04,North,-999,0.0,0.0,61,0.00,,,-99.99,WeatherLink 5.7,2013-11-10 02:16:00,
2013-11-09 21:26:00,38.9,26.6,30.03,North,-999,0.0,0.0,61,0.00,,,-99.99,WeatherLink 5.7,2013-11-10 02:26:00,
2013-11-09 21:35:00,38.8,26.5,30.03,North,-999,0.0,0.0,61,0.00,,,-99.99,WeatherLink 5.7,2013-11-10 02:35:00,
2013-11-09 21:41:00,38.8,26.9,30.03,North,-999,0.0,0.0,62,0.00,,,-99.99,WeatherLink 5.7,2013-11-10 02:41:00,
2013-11-09 21:50:00,38.8,26.9,30.03,North,-999,0.0,0.0,62,0.00,,,-99.99,WeatherLink 5.7,2013-11-10 02:50:00,
2013-11-09 21:55:00,38.8,26.9,30.03,South,180,0.0,2.0,62,0.00,,,-99.99,WeatherLink 5.7,2013-11-10 02:55:00,
2013-11-09 21:56:00,38.8,26.9,30.03,North,-999,0.0,0.0,62,0.00,,,-99.99,WeatherLink 5.7,2013-11-10 02:56:00,
2013-11-09 22:05:00,38.9,27.0,30.02,North,-999,0.0,0.0,62,0.00,,,-99.99,WeatherLink 5.7,2013-11-10 03:05:00,
2013-11-09 22:11:00,38.9,27.0,30.02,North,-999,0.0,0.0,62,0.00,,,-99.99,WeatherLink 5.7,2013-11-10 03:11:00,
2013-11-09 22:21:00,38.9,27.0,30.01,North,-999,0.0,0.0,62,0.00,,,-99.99,WeatherLink 5.7,2013-11-10 03:21:00,
2013-11-09 22:30:00,38.8,26.9,30.01,North,-999,0.0,0.0,62,0.00,,,-99.99,WeatherLink 5.7,2013-11-10 03:30:00,
2013-11-09 22:36:00,38.6,26.7,30.00,North,-999,0.0,0.0,62,0.00,,,-99.99,WeatherLink 5.7,2013-11-10 03:36:00,
2013-11-09 22:46:00,38.6,26.7,30.00,North,-999,0.0,0.0,62,0.00,,,-99.99,WeatherLink 5.7,2013-11-10 03:46:00,
2013-11-09 22:56:00,38.6,27.1,30.00,North,-999,0.0,0.0,63,0.00,,,-99.99,WeatherLink 5.7,2013-11-10 03:56:00,
2013-11-09 23:05:00,38.6,27.1,29.99,North,-999,0.0,0.0,63,0.00,,,-99.99,WeatherLink 5.7,2013-11-10 04:05:00,
2013-11-09 23:11:00,38.6,27.1,29.99,North,-999,0.0,0.0,63,0.00,,,-99.99,WeatherLink 5.7,2013-11-10 04:11:00,
2013-11-09 23:20:00,38.6,27.1,29.98,North,-999,0.0,0.0,63,0.00,,,-99.99,WeatherLink 5.7,2013-11-10 04:20:00,
2013-11-09 23:26:00,38.6,27.1,29.98,North,-999,0.0,0.0,63,0.00,,,-99.99,WeatherLink 5.7,2013-11-10 04:26:00,
2013-11-09 23:35:00,38.5,27.0,29.97,North,-999,0.0,0.0,63,0.00,,,-99.99,WeatherLink 5.7,2013-11-10 04:35:00,
2013-11-09 23:41:00,38.5,27.4,29.97,North,-999,0.0,0.0,64,0.00,,,-99.99,WeatherLink 5.7,2013-11-10 04:41:00,
2013-11-09 23:51:00,38.5,27.0,29.96,SSE,157,0.0,3.0,63,0.00,,,-99.99,WeatherLink 5.7,2013-11-10 04:51:00,